createdAt,value
2023-01-10T00:00:12.107Z,24.46
2023-01-10T00:03:16.006Z,24.45
2023-01-10T00:06:19.336Z,24.45
2023-01-10T00:09:23.820Z,24.44
2023-01-10T00:12:46.247Z,24.43
2023-01-10T00:15:54.065Z,24.41
2023-01-10T00:18:57.915Z,24.39
2023-01-10T00:22:06.160Z,24.38
2023-01-10T00:25:10.033Z,24.37
2023-01-10T00:28:13.863Z,24.36
2023-01-10T00:31:17.654Z,24.34
2023-01-10T00:34:22.019Z,24.33
2023-01-10T00:37:25.844Z,24.33
2023-01-10T00:40:29.387Z,24.32
2023-01-10T00:43:51.199Z,24.31
2023-01-10T00:46:55.133Z,24.31
2023-01-10T00:49:59.267Z,24.31
2023-01-10T00:53:03.193Z,24.30
2023-01-10T00:56:07.918Z,24.30
2023-01-10T00:59:11.372Z,24.29
2023-01-10T01:02:15.389Z,24.29
2023-01-10T01:05:21.061Z,24.29
2023-01-10T01:08:25.492Z,24.30
2023-01-10T01:11:29.412Z,24.31
2023-01-10T01:14:32.762Z,24.31
2023-01-10T01:17:36.621Z,24.30
2023-01-10T01:20:42.578Z,24.31
2023-01-10T01:23:46.036Z,24.30
2023-01-10T01:26:49.516Z,24.30
2023-01-10T01:29:53.025Z,24.30
2023-01-10T01:32:56.655Z,24.30
2023-01-10T01:36:00.890Z,24.28
2023-01-10T01:39:06.641Z,24.28
2023-01-10T01:42:26.862Z,24.27
2023-01-10T01:45:30.307Z,24.26
2023-01-10T01:48:43.341Z,24.24
2023-01-10T01:51:54.851Z,24.23
2023-01-10T01:55:00.720Z,24.22
2023-01-10T01:58:14.136Z,24.20
2023-01-10T02:01:18.807Z,24.20
2023-01-10T02:04:45.785Z,24.19
2023-01-10T02:07:55.340Z,24.19
2023-01-10T02:11:12.163Z,24.17
2023-01-10T02:14:15.871Z,24.17
2023-01-10T02:17:19.625Z,24.17
2023-01-10T02:20:24.536Z,24.17
2023-01-10T02:24:11.183Z,24.18
2023-01-10T02:27:48.978Z,24.18
2023-01-10T02:31:12.217Z,24.20
2023-01-10T02:34:27.908Z,24.18
2023-01-10T02:38:06.051Z,24.22
2023-01-10T02:41:53.655Z,24.24
2023-01-10T02:45:09.033Z,24.26
2023-01-10T02:48:13.377Z,24.29
2023-01-10T02:51:29.646Z,24.30
2023-01-10T02:54:33.208Z,24.32
2023-01-10T02:58:04.110Z,24.34
2023-01-10T03:01:36.164Z,24.33
2023-01-10T03:05:19.968Z,24.35
2023-01-10T03:08:47.116Z,24.36
2023-01-10T03:11:55.595Z,24.36
2023-01-10T03:15:01.393Z,24.37
2023-01-10T03:18:21.276Z,24.37
2023-01-10T03:21:26.890Z,24.38
2023-01-10T03:24:42.182Z,24.38
2023-01-10T03:27:56.419Z,24.38
2023-01-10T03:31:19.747Z,24.38
2023-01-10T03:34:25.250Z,24.38
2023-01-10T03:38:10.472Z,24.39
2023-01-10T03:41:44.703Z,24.38
2023-01-10T03:44:54.056Z,24.38
2023-01-10T03:48:02.005Z,24.39
2023-01-10T03:51:08.060Z,24.39
2023-01-10T03:54:12.530Z,24.38
2023-01-10T03:57:22.560Z,24.39
2023-01-10T04:00:26.394Z,24.38
2023-01-10T04:03:30.214Z,24.38
2023-01-10T04:06:33.564Z,24.39
2023-01-10T04:09:37.529Z,24.38
2023-01-10T04:12:40.821Z,24.38
2023-01-10T04:15:44.483Z,24.38
2023-01-10T04:18:48.100Z,24.39
2023-01-10T04:21:51.828Z,24.39
2023-01-10T04:24:56.012Z,24.40
2023-01-10T04:27:59.534Z,24.40
2023-01-10T04:31:03.356Z,24.41
2023-01-10T04:34:11.057Z,24.41
2023-01-10T04:37:14.534Z,24.41
2023-01-10T04:40:19.915Z,24.41
2023-01-10T04:43:24.919Z,24.41
2023-01-10T04:46:28.572Z,24.40
2023-01-10T04:49:32.033Z,24.40
2023-01-10T04:52:35.717Z,24.40
2023-01-10T04:55:38.831Z,24.39
2023-01-10T04:58:42.242Z,24.39
2023-01-10T05:01:45.511Z,24.39
2023-01-10T05:04:48.724Z,24.39
2023-01-10T05:07:53.249Z,24.39
2023-01-10T05:10:56.962Z,24.39
2023-01-10T05:14:00.982Z,24.39
2023-01-10T05:17:04.205Z,24.39
2023-01-10T05:20:09.299Z,24.38
2023-01-10T05:23:12.884Z,24.38
2023-01-10T05:26:20.302Z,24.38
2023-01-10T05:29:27.291Z,24.38
2023-01-10T05:32:31.229Z,24.38
2023-01-10T05:35:35.408Z,24.38
2023-01-10T05:38:39.223Z,24.37
2023-01-10T05:41:44.820Z,24.38
2023-01-10T05:44:49.210Z,24.37
2023-01-10T05:47:52.756Z,24.37
2023-01-10T05:50:58.917Z,24.37
2023-01-10T05:54:03.857Z,24.37
2023-01-10T05:57:07.815Z,24.37
2023-01-10T06:00:14.004Z,24.38
2023-01-10T06:03:18.245Z,24.38
2023-01-10T06:06:21.485Z,24.38
2023-01-10T06:09:24.910Z,24.38
2023-01-10T06:12:29.109Z,24.39
2023-01-10T06:15:33.863Z,24.39
2023-01-10T06:18:37.794Z,24.39
2023-01-10T06:21:41.805Z,24.39
2023-01-10T06:24:44.647Z,24.40
2023-01-10T06:27:49.773Z,24.40
2023-01-10T06:30:56.146Z,24.40
2023-01-10T06:33:59.710Z,24.40
2023-01-10T06:37:03.133Z,24.40
2023-01-10T06:40:08.589Z,24.39
2023-01-10T06:43:12.059Z,24.40
2023-01-10T06:46:19.657Z,24.39
2023-01-10T06:49:22.953Z,24.40
2023-01-10T06:52:26.358Z,24.35
2023-01-10T06:55:30.280Z,24.36
2023-01-10T06:58:35.116Z,24.36
2023-01-10T07:01:39.282Z,24.36
2023-01-10T07:04:42.918Z,24.36
2023-01-10T07:07:47.035Z,24.36
2023-01-10T07:10:50.376Z,24.36
2023-01-10T07:13:54.362Z,24.35
2023-01-10T07:16:57.957Z,24.35
2023-01-10T07:20:01.776Z,24.36
2023-01-10T07:23:05.390Z,24.36
2023-01-10T07:26:17.923Z,24.35
2023-01-10T07:29:21.420Z,24.35
2023-01-10T07:32:25.222Z,24.36
2023-01-10T07:35:28.577Z,24.37
2023-01-10T07:38:32.353Z,24.37
2023-01-10T07:41:35.794Z,24.37
2023-01-10T07:44:39.957Z,24.37
2023-01-10T07:47:43.415Z,24.37
2023-01-10T07:50:46.751Z,24.38
2023-01-10T07:53:49.806Z,24.39
2023-01-10T07:56:52.988Z,24.39
2023-01-10T07:59:56.203Z,24.37
2023-01-10T08:02:59.640Z,24.34
2023-01-10T08:06:07.222Z,24.31
2023-01-10T08:09:09.999Z,24.30
2023-01-10T08:12:13.185Z,24.31
2023-01-10T08:15:17.501Z,24.32
2023-01-10T08:18:23.494Z,24.32
2023-01-10T08:21:27.056Z,24.32
2023-01-10T08:24:30.480Z,24.32
2023-01-10T08:27:34.302Z,24.33
2023-01-10T08:30:38.706Z,24.34
2023-01-10T08:33:42.018Z,24.35
2023-01-10T08:36:45.365Z,24.35
2023-01-10T08:39:48.715Z,24.36
2023-01-10T08:43:06.444Z,24.36
2023-01-10T08:46:09.589Z,24.37
2023-01-10T08:49:12.915Z,24.33
2023-01-10T08:52:17.924Z,24.35
2023-01-10T08:55:21.837Z,24.37
2023-01-10T08:58:24.918Z,24.38
2023-01-10T09:01:28.181Z,24.38
2023-01-10T09:04:33.058Z,24.39
2023-01-10T09:07:36.680Z,24.39
2023-01-10T09:10:39.882Z,24.38
2023-01-10T09:13:43.017Z,24.38
2023-01-10T09:16:46.493Z,24.38
2023-01-10T09:19:50.469Z,24.37
2023-01-10T09:22:54.613Z,24.36
2023-01-10T09:25:58.091Z,24.37
2023-01-10T09:29:01.019Z,24.36
2023-01-10T09:32:04.518Z,24.36
2023-01-10T09:35:08.461Z,24.36
2023-01-10T09:38:16.779Z,24.36
2023-01-10T09:41:52.126Z,24.36
2023-01-10T09:45:15.963Z,24.35
2023-01-10T09:48:54.891Z,24.34
2023-01-10T09:51:59.478Z,24.33
2023-01-10T09:55:34.068Z,24.34
2023-01-10T09:58:38.987Z,24.33
2023-01-10T10:01:42.600Z,24.33
2023-01-10T10:04:53.096Z,24.33
2023-01-10T10:08:05.460Z,24.32
2023-01-10T10:11:26.813Z,24.31
2023-01-10T10:15:04.429Z,24.29
2023-01-10T10:18:26.650Z,24.26
2023-01-10T10:21:37.025Z,24.18
2023-01-10T10:25:04.087Z,24.18
2023-01-10T10:28:53.537Z,24.16
2023-01-10T10:32:22.867Z,24.12
2023-01-10T10:36:01.140Z,24.11
2023-01-10T10:39:13.410Z,24.09
2023-01-10T10:42:19.927Z,24.07
2023-01-10T10:45:39.848Z,24.06
2023-01-10T10:49:04.900Z,24.04
2023-01-10T10:52:37.496Z,24.03
2023-01-10T10:55:40.804Z,23.98
2023-01-10T10:58:55.755Z,23.93
2023-01-10T11:01:58.708Z,23.89
2023-01-10T11:05:06.664Z,23.86
2023-01-10T11:08:13.025Z,23.83
2023-01-10T11:11:39.861Z,23.77
2023-01-10T11:14:52.393Z,23.77
2023-01-10T11:18:20.728Z,23.78
2023-01-10T11:21:25.253Z,23.79
2023-01-10T11:24:53.273Z,23.80
2023-01-10T11:28:03.806Z,23.79
2023-01-10T11:31:07.114Z,23.78
2023-01-10T11:34:23.047Z,23.78
2023-01-10T11:37:35.535Z,23.77
2023-01-10T11:40:39.477Z,23.76
2023-01-10T11:43:42.221Z,23.75
2023-01-10T11:46:49.415Z,23.77
2023-01-10T11:49:52.263Z,23.79
2023-01-10T11:52:56.167Z,23.82
2023-01-10T11:55:58.765Z,23.84
2023-01-10T11:59:12.680Z,23.85
2023-01-10T12:02:26.794Z,23.86
2023-01-10T12:05:29.543Z,23.86
2023-01-10T12:08:38.484Z,23.87
2023-01-10T12:11:41.631Z,23.88
2023-01-10T12:14:44.902Z,23.89
2023-01-10T12:17:47.897Z,23.90
2023-01-10T12:20:52.941Z,23.91
2023-01-10T12:23:59.863Z,23.92
2023-01-10T12:27:06.042Z,23.93
2023-01-10T12:30:22.030Z,23.93
2023-01-10T12:33:34.014Z,23.93
2023-01-10T12:36:59.563Z,23.95
2023-01-10T12:40:19.435Z,23.94
2023-01-10T12:43:57.758Z,23.95
2023-01-10T12:47:19.982Z,23.95
2023-01-10T12:50:37.441Z,23.96
2023-01-10T12:53:44.409Z,23.96
2023-01-10T12:56:47.565Z,23.96
2023-01-10T12:59:53.184Z,23.97
2023-01-10T13:03:00.851Z,23.97
2023-01-10T13:06:04.095Z,23.96
2023-01-10T13:09:31.329Z,23.96
2023-01-10T13:12:44.929Z,23.95
2023-01-10T13:16:02.837Z,23.96
2023-01-10T13:19:11.263Z,23.96
2023-01-10T13:22:23.617Z,23.97
2023-01-10T13:25:36.047Z,23.96
2023-01-10T13:28:52.763Z,23.96
2023-01-10T13:32:01.673Z,23.96
2023-01-10T13:35:19.779Z,23.97
2023-01-10T13:38:59.273Z,23.96
2023-01-10T13:42:20.268Z,23.95
2023-01-10T13:45:25.785Z,23.95
2023-01-10T13:48:28.463Z,23.94
2023-01-10T13:51:31.895Z,23.95
2023-01-10T13:54:35.199Z,23.94
2023-01-10T13:57:59.152Z,23.94
2023-01-10T14:01:21.253Z,23.93
2023-01-10T14:04:53.360Z,23.91
2023-01-10T14:07:58.044Z,23.91
2023-01-10T14:11:13.934Z,23.91
2023-01-10T14:14:27.181Z,23.91
2023-01-10T14:17:35.387Z,23.91
2023-01-10T14:20:37.879Z,23.91
2023-01-10T14:23:50.119Z,23.91
2023-01-10T14:26:57.564Z,23.92
2023-01-10T14:30:01.253Z,23.92
2023-01-10T14:33:22.147Z,23.91
2023-01-10T14:36:35.184Z,23.92
2023-01-10T14:39:38.406Z,23.92
2023-01-10T14:42:41.987Z,23.94
2023-01-10T14:46:02.547Z,23.96
2023-01-10T14:49:35.417Z,23.98
2023-01-10T14:52:43.351Z,24.00
2023-01-10T14:55:45.680Z,24.03
2023-01-10T14:58:48.097Z,24.01
2023-01-10T15:02:02.471Z,24.05
2023-01-10T15:05:18.517Z,24.07
2023-01-10T15:08:25.925Z,24.09
2023-01-10T15:11:31.160Z,24.12
2023-01-10T15:14:37.545Z,24.14
2023-01-10T15:17:41.556Z,24.16
2023-01-10T15:20:44.204Z,24.19
2023-01-10T15:23:47.577Z,24.20
2023-01-10T15:51:26.640Z,24.82
2023-01-10T17:57:52.515Z,25.40
2023-01-10T18:15:07.884Z,25.49
2023-01-10T20:11:36.777Z,26.41
2023-01-10T20:14:55.325Z,26.19
2023-01-10T20:32:23.398Z,26.43
2023-01-10T23:36:12.048Z,25.99
